sensor_id;sensor_type;location;lat;lon;timestamp;temperature;humidity
73509;SHT30;61750;55.036;73.312;2023-04-07T00:02:02;0.70;76.99
73509;SHT30;61750;55.036;73.312;2023-04-07T00:04:28;0.81;77.07
73509;SHT30;61750;55.036;73.312;2023-04-07T00:07:02;0.83;76.88
73509;SHT30;61750;55.036;73.312;2023-04-07T00:09:28;0.77;77.16
73509;SHT30;61750;55.036;73.312;2023-04-07T00:11:54;0.70;77.46
73509;SHT30;61750;55.036;73.312;2023-04-07T00:14:20;0.61;77.67
73509;SHT30;61750;55.036;73.312;2023-04-07T00:17:02;0.63;78.05
73509;SHT30;61750;55.036;73.312;2023-04-07T00:19:28;0.64;78.63
73509;SHT30;61750;55.036;73.312;2023-04-07T00:22:04;0.56;78.78
73509;SHT30;61750;55.036;73.312;2023-04-07T00:24:30;0.33;78.56
73509;SHT30;61750;55.036;73.312;2023-04-07T00:27:02;0.19;79.55
73509;SHT30;61750;55.036;73.312;2023-04-07T00:29:32;0.09;79.93
73509;SHT30;61750;55.036;73.312;2023-04-07T00:32:02;-0.01;80.37
73509;SHT30;61750;55.036;73.312;2023-04-07T00:34:31;-0.12;81.28
73509;SHT30;61750;55.036;73.312;2023-04-07T00:37:02;-0.15;81.53
73509;SHT30;61750;55.036;73.312;2023-04-07T00:39:37;-0.21;81.47
73509;SHT30;61750;55.036;73.312;2023-04-07T00:42:03;-0.22;81.86
73509;SHT30;61750;55.036;73.312;2023-04-07T00:44:32;-0.29;82.19
73509;SHT30;61750;55.036;73.312;2023-04-07T00:47:03;-0.30;82.07
73509;SHT30;61750;55.036;73.312;2023-04-07T00:49:40;-0.38;82.20
73509;SHT30;61750;55.036;73.312;2023-04-07T00:52:11;-0.36;83.10
73509;SHT30;61750;55.036;73.312;2023-04-07T00:54:38;-0.40;82.98
73509;SHT30;61750;55.036;73.312;2023-04-07T00:57:09;-0.42;83.18
73509;SHT30;61750;55.036;73.312;2023-04-07T00:59:35;-0.55;83.52
73509;SHT30;61750;55.036;73.312;2023-04-07T01:02:07;-0.53;84.42
73509;SHT30;61750;55.036;73.312;2023-04-07T01:05:37;-0.55;84.43
73509;SHT30;61750;55.036;73.312;2023-04-07T01:10:16;-0.42;83.92
73509;SHT30;61750;55.036;73.312;2023-04-07T01:15:29;-0.38;82.96
73509;SHT30;61750;55.036;73.312;2023-04-07T01:17:58;-0.30;82.70
73509;SHT30;61750;55.036;73.312;2023-04-07T01:20:35;-0.38;82.48
73509;SHT30;61750;55.036;73.312;2023-04-07T01:23:03;-0.43;82.39
73509;SHT30;61750;55.036;73.312;2023-04-07T01:31:00;-0.46;81.45
73509;SHT30;61750;55.036;73.312;2023-04-07T01:33:36;-0.48;81.18
73509;SHT30;61750;55.036;73.312;2023-04-07T01:36:02;-0.52;81.02
73509;SHT30;61750;55.036;73.312;2023-04-07T01:38:30;-0.49;81.06
73509;SHT30;61750;55.036;73.312;2023-04-07T01:40:57;-0.49;80.70
73509;SHT30;61750;55.036;73.312;2023-04-07T01:43:23;-0.52;80.59
73509;SHT30;61750;55.036;73.312;2023-04-07T01:45:50;-0.58;80.20
73509;SHT30;61750;55.036;73.312;2023-04-07T01:48:16;-0.46;80.19
73509;SHT30;61750;55.036;73.312;2023-04-07T01:50:43;-0.43;79.75
73509;SHT30;61750;55.036;73.312;2023-04-07T01:53:09;-0.39;79.47
73509;SHT30;61750;55.036;73.312;2023-04-07T01:55:43;-0.48;78.74
73509;SHT30;61750;55.036;73.312;2023-04-07T01:58:10;-0.45;78.12
73509;SHT30;61750;55.036;73.312;2023-04-07T02:00:40;-0.52;76.33
73509;SHT30;61750;55.036;73.312;2023-04-07T02:03:13;-0.59;76.73
73509;SHT30;61750;55.036;73.312;2023-04-07T02:05:46;-0.59;77.10
73509;SHT30;61750;55.036;73.312;2023-04-07T02:08:18;-0.55;76.17
73509;SHT30;61750;55.036;73.312;2023-04-07T02:10:46;-0.53;76.04
73509;SHT30;61750;55.036;73.312;2023-04-07T02:13:15;-0.52;76.24
73509;SHT30;61750;55.036;73.312;2023-04-07T02:15:42;-0.49;75.99
73509;SHT30;61750;55.036;73.312;2023-04-07T02:18:10;-0.50;75.20
73509;SHT30;61750;55.036;73.312;2023-04-07T02:20:37;-0.58;74.98
73509;SHT30;61750;55.036;73.312;2023-04-07T02:23:06;-0.56;74.57
73509;SHT30;61750;55.036;73.312;2023-04-07T02:25:32;-0.62;74.00
73509;SHT30;61750;55.036;73.312;2023-04-07T02:27:59;-0.60;73.64
73509;SHT30;61750;55.036;73.312;2023-04-07T02:30:30;-0.53;73.72
73509;SHT30;61750;55.036;73.312;2023-04-07T02:33:03;-0.52;73.74
73509;SHT30;61750;55.036;73.312;2023-04-07T02:35:29;-0.52;73.64
73509;SHT30;61750;55.036;73.312;2023-04-07T02:37:55;-0.50;73.54
73509;SHT30;61750;55.036;73.312;2023-04-07T02:40:21;-0.73;71.54
73509;SHT30;61750;55.036;73.312;2023-04-07T02:42:47;-0.80;71.99
73509;SHT30;61750;55.036;73.312;2023-04-07T02:45:13;-0.89;71.38
73509;SHT30;61750;55.036;73.312;2023-04-07T02:47:43;-0.97;70.92
73509;SHT30;61750;55.036;73.312;2023-04-07T02:50:09;-1.07;70.73
73509;SHT30;61750;55.036;73.312;2023-04-07T02:52:35;-1.08;71.69
73509;SHT30;61750;55.036;73.312;2023-04-07T02:55:06;-1.07;71.02
73509;SHT30;61750;55.036;73.312;2023-04-07T02:57:32;-1.01;71.18
73509;SHT30;61750;55.036;73.312;2023-04-07T03:00:01;-0.99;71.22
73509;SHT30;61750;55.036;73.312;2023-04-07T03:02:42;-0.90;71.28
73509;SHT30;61750;55.036;73.312;2023-04-07T03:05:08;-0.77;72.15
73509;SHT30;61750;55.036;73.312;2023-04-07T03:07:34;-0.82;70.80
73509;SHT30;61750;55.036;73.312;2023-04-07T03:10:00;-0.82;70.80
73509;SHT30;61750;55.036;73.312;2023-04-07T03:12:26;-0.99;71.13
73509;SHT30;61750;55.036;73.312;2023-04-07T03:14:57;-1.07;71.45
73509;SHT30;61750;55.036;73.312;2023-04-07T03:17:24;-1.35;71.17
73509;SHT30;61750;55.036;73.312;2023-04-07T03:20:00;-1.57;70.78
73509;SHT30;61750;55.036;73.312;2023-04-07T03:22:26;-1.43;72.10
73509;SHT30;61750;55.036;73.312;2023-04-07T03:24:53;-1.48;71.10
73509;SHT30;61750;55.036;73.312;2023-04-07T03:27:23;-1.58;69.95
73509;SHT30;61750;55.036;73.312;2023-04-07T03:29:49;-1.61;70.33
73509;SHT30;61750;55.036;73.312;2023-04-07T03:32:18;-1.57;70.27
73509;SHT30;61750;55.036;73.312;2023-04-07T03:34:45;-1.62;69.89
73509;SHT30;61750;55.036;73.312;2023-04-07T03:37:12;-1.58;70.31
73509;SHT30;61750;55.036;73.312;2023-04-07T03:39:41;-1.71;69.66
73509;SHT30;61750;55.036;73.312;2023-04-07T03:42:22;-1.62;69.52
73509;SHT30;61750;55.036;73.312;2023-04-07T03:44:50;-1.55;68.90
73509;SHT30;61750;55.036;73.312;2023-04-07T03:47:17;-1.86;68.78
73509;SHT30;61750;55.036;73.312;2023-04-07T03:49:49;-2.14;68.96
73509;SHT30;61750;55.036;73.312;2023-04-07T03:52:25;-1.83;70.50
73509;SHT30;61750;55.036;73.312;2023-04-07T03:54:58;-1.79;68.26
73509;SHT30;61750;55.036;73.312;2023-04-07T03:57:34;-1.89;68.74
73509;SHT30;61750;55.036;73.312;2023-04-07T04:00:01;-1.83;67.89
73509;SHT30;61750;55.036;73.312;2023-04-07T04:02:41;-1.91;67.30
73509;SHT30;61750;55.036;73.312;2023-04-07T04:05:13;-1.92;67.53
73509;SHT30;61750;55.036;73.312;2023-04-07T04:07:39;-1.79;68.33
73509;SHT30;61750;55.036;73.312;2023-04-07T04:10:12;-1.69;67.32
73509;SHT30;61750;55.036;73.312;2023-04-07T04:12:42;-1.67;67.36
73509;SHT30;61750;55.036;73.312;2023-04-07T04:15:10;-1.38;67.34
73509;SHT30;61750;55.036;73.312;2023-04-07T04:17:37;-1.44;65.85
73509;SHT30;61750;55.036;73.312;2023-04-07T04:20:15;-1.31;66.09
73509;SHT30;61750;55.036;73.312;2023-04-07T04:22:53;-1.18;65.01
73509;SHT30;61750;55.036;73.312;2023-04-07T04:25:20;-1.54;64.68
73509;SHT30;61750;55.036;73.312;2023-04-07T04:27:50;-1.79;63.79
73509;SHT30;61750;55.036;73.312;2023-04-07T04:30:20;-1.89;63.74
73509;SHT30;61750;55.036;73.312;2023-04-07T04:32:57;-1.71;64.95
73509;SHT30;61750;55.036;73.312;2023-04-07T04:35:38;-1.86;63.71
73509;SHT30;61750;55.036;73.312;2023-04-07T04:38:14;-2.18;64.05
73509;SHT30;61750;55.036;73.312;2023-04-07T04:40:46;-2.19;64.64
73509;SHT30;61750;55.036;73.312;2023-04-07T04:43:13;-2.18;64.40
73509;SHT30;61750;55.036;73.312;2023-04-07T04:45:40;-2.10;65.32
73509;SHT30;61750;55.036;73.312;2023-04-07T04:48:09;-1.93;64.52
73509;SHT30;61750;55.036;73.312;2023-04-07T04:50:36;-1.92;64.79
73509;SHT30;61750;55.036;73.312;2023-04-07T04:53:07;-1.98;63.90
73509;SHT30;61750;55.036;73.312;2023-04-07T04:55:33;-2.02;63.74
73509;SHT30;61750;55.036;73.312;2023-04-07T04:58:09;-1.74;64.12
73509;SHT30;61750;55.036;73.312;2023-04-07T05:00:45;-1.55;63.39
73509;SHT30;61750;55.036;73.312;2023-04-07T05:03:11;-1.30;63.50
73509;SHT30;61750;55.036;73.312;2023-04-07T05:05:40;-1.37;61.98
73509;SHT30;61750;55.036;73.312;2023-04-07T05:08:09;-1.38;62.23
73509;SHT30;61750;55.036;73.312;2023-04-07T05:10:37;-1.28;62.45
73509;SHT30;61750;55.036;73.312;2023-04-07T05:13:07;-1.41;61.16
73509;SHT30;61750;55.036;73.312;2023-04-07T05:15:34;-1.13;62.09
73509;SHT30;61750;55.036;73.312;2023-04-07T05:18:01;-1.00;60.68
73509;SHT30;61750;55.036;73.312;2023-04-07T05:20:28;-0.93;60.69
73509;SHT30;61750;55.036;73.312;2023-04-07T05:22:54;-0.49;60.65
73509;SHT30;61750;55.036;73.312;2023-04-07T05:25:29;-0.01;61.09
73509;SHT30;61750;55.036;73.312;2023-04-07T05:27:58;0.01;60.09
73509;SHT30;61750;55.036;73.312;2023-04-07T05:30:25;-0.05;60.51
73509;SHT30;61750;55.036;73.312;2023-04-07T05:32:52;-1.04;60.57
73509;SHT30;61750;55.036;73.312;2023-04-07T05:35:33;-1.47;62.57
73509;SHT30;61750;55.036;73.312;2023-04-07T05:37:59;-1.47;61.56
73509;SHT30;61750;55.036;73.312;2023-04-07T05:40:25;-1.57;61.71
73509;SHT30;61750;55.036;73.312;2023-04-07T05:43:02;-1.41;61.23
73509;SHT30;61750;55.036;73.312;2023-04-07T05:45:30;-1.43;61.07
73509;SHT30;61750;55.036;73.312;2023-04-07T05:47:56;-1.45;60.17
73509;SHT30;61750;55.036;73.312;2023-04-07T05:50:30;-0.97;60.83
73509;SHT30;61750;55.036;73.312;2023-04-07T05:53:10;-0.66;59.72
73509;SHT30;61750;55.036;73.312;2023-04-07T05:55:36;-0.53;59.79
73509;SHT30;61750;55.036;73.312;2023-04-07T05:58:04;-0.79;58.59
73509;SHT30;61750;55.036;73.312;2023-04-07T06:00:31;-0.69;59.67
73509;SHT30;61750;55.036;73.312;2023-04-07T06:03:06;-0.74;59.65
73509;SHT30;61750;55.036;73.312;2023-04-07T06:05:47;-0.60;59.44
73509;SHT30;61750;55.036;73.312;2023-04-07T06:08:24;-0.99;58.82
73509;SHT30;61750;55.036;73.312;2023-04-07T06:10:59;-1.15;59.46
73509;SHT30;61750;55.036;73.312;2023-04-07T06:13:26;-1.15;59.96
73509;SHT30;61750;55.036;73.312;2023-04-07T06:15:53;-0.97;60.46
73509;SHT30;61750;55.036;73.312;2023-04-07T06:18:29;-1.21;59.99
73509;SHT30;61750;55.036;73.312;2023-04-07T06:21:05;-0.60;59.29
73509;SHT30;61750;55.036;73.312;2023-04-07T06:23:32;-0.86;58.77
73509;SHT30;61750;55.036;73.312;2023-04-07T06:25:59;-0.97;58.64
73509;SHT30;61750;55.036;73.312;2023-04-07T06:28:28;-0.79;59.21
73509;SHT30;61750;55.036;73.312;2023-04-07T06:30:54;-0.72;58.25
73509;SHT30;61750;55.036;73.312;2023-04-07T06:33:20;-0.86;57.18
73509;SHT30;61750;55.036;73.312;2023-04-07T06:35:50;-0.68;57.57
73509;SHT30;61750;55.036;73.312;2023-04-07T06:38:16;-0.82;56.42
73509;SHT30;61750;55.036;73.312;2023-04-07T06:40:42;-1.23;57.68
73509;SHT30;61750;55.036;73.312;2023-04-07T06:43:08;-1.28;56.75
73509;SHT30;61750;55.036;73.312;2023-04-07T06:45:55;-1.23;57.57
73509;SHT30;61750;55.036;73.312;2023-04-07T06:48:21;-1.08;56.75
73509;SHT30;61750;55.036;73.312;2023-04-07T06:50:48;-1.04;57.63
73509;SHT30;61750;55.036;73.312;2023-04-07T06:53:14;-1.08;56.71
73509;SHT30;61750;55.036;73.312;2023-04-07T06:55:40;-0.72;54.87
73509;SHT30;61750;55.036;73.312;2023-04-07T06:58:06;-0.46;54.88
73509;SHT30;61750;55.036;73.312;2023-04-07T07:00:32;-0.23;55.68
73509;SHT30;61750;55.036;73.312;2023-04-07T07:02:58;-0.73;50.86
73509;SHT30;61750;55.036;73.312;2023-04-07T07:05:24;-1.05;53.71
73509;SHT30;61750;55.036;73.312;2023-04-07T07:08:00;-0.82;53.65
73509;SHT30;61750;55.036;73.312;2023-04-07T07:10:26;-0.80;54.33
73509;SHT30;61750;55.036;73.312;2023-04-07T07:12:52;-0.42;54.12
73509;SHT30;61750;55.036;73.312;2023-04-07T07:15:18;-0.18;53.84
73509;SHT30;61750;55.036;73.312;2023-04-07T07:17:44;-0.15;52.52
73509;SHT30;61750;55.036;73.312;2023-04-07T07:20:12;-0.46;51.47
73509;SHT30;61750;55.036;73.312;2023-04-07T07:22:39;-0.33;51.69
73509;SHT30;61750;55.036;73.312;2023-04-07T07:25:06;-0.46;52.05
73509;SHT30;61750;55.036;73.312;2023-04-07T07:27:32;-0.52;51.73
73509;SHT30;61750;55.036;73.312;2023-04-07T07:29:58;-0.17;51.84
73509;SHT30;61750;55.036;73.312;2023-04-07T07:32:34;-0.36;52.16
73509;SHT30;61750;55.036;73.312;2023-04-07T07:35:01;-0.09;52.07
73509;SHT30;61750;55.036;73.312;2023-04-07T07:37:30;0.42;51.40
73509;SHT30;61750;55.036;73.312;2023-04-07T07:39:56;0.58;50.64
73509;SHT30;61750;55.036;73.312;2023-04-07T07:42:22;0.17;49.65
73509;SHT30;61750;55.036;73.312;2023-04-07T07:44:48;-0.46;49.65
73509;SHT30;61750;55.036;73.312;2023-04-07T07:47:15;0.43;52.92
73509;SHT30;61750;55.036;73.312;2023-04-07T07:49:41;0.20;51.00
73509;SHT30;61750;55.036;73.312;2023-04-07T07:52:07;0.61;48.94
73509;SHT30;61750;55.036;73.312;2023-04-07T07:54:43;0.53;48.19
73509;SHT30;61750;55.036;73.312;2023-04-07T07:57:09;0.47;48.90
73509;SHT30;61750;55.036;73.312;2023-04-07T07:59:35;0.90;48.79
73509;SHT30;61750;55.036;73.312;2023-04-07T08:02:05;1.01;48.36
73509;SHT30;61750;55.036;73.312;2023-04-07T08:04:31;0.87;46.82
73509;SHT30;61750;55.036;73.312;2023-04-07T08:07:02;0.25;45.56
73509;SHT30;61750;55.036;73.312;2023-04-07T08:09:29;0.02;46.98
73509;SHT30;61750;55.036;73.312;2023-04-07T08:11:57;0.45;48.73
73509;SHT30;61750;55.036;73.312;2023-04-07T08:14:23;0.52;46.95
73509;SHT30;61750;55.036;73.312;2023-04-07T08:17:02;0.66;47.69
73509;SHT30;61750;55.036;73.312;2023-04-07T08:19:28;0.40;46.32
73509;SHT30;61750;55.036;73.312;2023-04-07T08:22:02;0.02;46.02
73509;SHT30;61750;55.036;73.312;2023-04-07T08:24:28;0.09;48.18
73509;SHT30;61750;55.036;73.312;2023-04-07T08:27:02;0.40;46.36
73509;SHT30;61750;55.036;73.312;2023-04-07T08:29:40;1.05;46.35
73509;SHT30;61750;55.036;73.312;2023-04-07T08:32:14;0.71;45.42
73509;SHT30;61750;55.036;73.312;2023-04-07T08:38:13;0.97;43.75
73509;SHT30;61750;55.036;73.312;2023-04-07T08:40:51;0.80;43.64
73509;SHT30;61750;55.036;73.312;2023-04-07T08:43:18;0.76;43.49
73509;SHT30;61750;55.036;73.312;2023-04-07T08:45:50;1.11;43.58
73509;SHT30;61750;55.036;73.312;2023-04-07T08:48:16;1.34;42.59
73509;SHT30;61750;55.036;73.312;2023-04-07T08:50:44;1.41;42.85
73509;SHT30;61750;55.036;73.312;2023-04-07T08:53:27;1.85;42.37
73509;SHT30;61750;55.036;73.312;2023-04-07T08:55:54;1.85;41.79
73509;SHT30;61750;55.036;73.312;2023-04-07T08:58:31;1.58;41.20
73509;SHT30;61750;55.036;73.312;2023-04-07T09:00:57;1.95;40.74
73509;SHT30;61750;55.036;73.312;2023-04-07T09:03:23;2.44;41.45
73509;SHT30;61750;55.036;73.312;2023-04-07T09:05:54;1.97;39.80
73509;SHT30;61750;55.036;73.312;2023-04-07T09:08:21;2.17;39.32
73509;SHT30;61750;55.036;73.312;2023-04-07T09:10:57;2.20;40.62
73509;SHT30;61750;55.036;73.312;2023-04-07T09:13:44;2.23;39.48
73509;SHT30;61750;55.036;73.312;2023-04-07T09:17:02;1.90;40.23
73509;SHT30;61750;55.036;73.312;2023-04-07T09:19:38;2.40;39.63
73509;SHT30;61750;55.036;73.312;2023-04-07T09:22:04;3.11;39.96
73509;SHT30;61750;55.036;73.312;2023-04-07T09:24:31;3.59;39.00
73509;SHT30;61750;55.036;73.312;2023-04-07T09:29:35;3.37;35.99
73509;SHT30;61750;55.036;73.312;2023-04-07T09:32:02;2.98;36.36
73509;SHT30;61750;55.036;73.312;2023-04-07T09:34:30;3.12;38.27
73509;SHT30;61750;55.036;73.312;2023-04-07T09:37:02;3.95;36.01
73509;SHT30;61750;55.036;73.312;2023-04-07T09:39:31;3.86;37.40
73509;SHT30;61750;55.036;73.312;2023-04-07T09:41:57;4.30;36.20
73509;SHT30;61750;55.036;73.312;2023-04-07T09:44:24;4.40;36.53
73509;SHT30;61750;55.036;73.312;2023-04-07T09:47:02;4.11;35.10
73509;SHT30;61750;55.036;73.312;2023-04-07T09:49:28;3.77;35.53
73509;SHT30;61750;55.036;73.312;2023-04-07T09:52:02;3.37;35.41
73509;SHT30;61750;55.036;73.312;2023-04-07T09:54:36;3.46;35.18
73509;SHT30;61750;55.036;73.312;2023-04-07T09:57:06;3.95;36.09
73509;SHT30;61750;55.036;73.312;2023-04-07T09:59:38;4.75;34.45
73509;SHT30;61750;55.036;73.312;2023-04-07T10:02:12;5.01;33.12
73509;SHT30;61750;55.036;73.312;2023-04-07T10:04:38;4.56;34.26
73509;SHT30;61750;55.036;73.312;2023-04-07T10:07:05;3.97;33.32
73509;SHT30;61750;55.036;73.312;2023-04-07T10:09:31;3.66;33.30
73509;SHT30;61750;55.036;73.312;2023-04-07T10:11:58;3.39;34.39
73509;SHT30;61750;55.036;73.312;2023-04-07T10:14:29;3.49;35.16
73509;SHT30;61750;55.036;73.312;2023-04-07T10:17:02;4.03;34.13
73509;SHT30;61750;55.036;73.312;2023-04-07T10:19:29;4.66;32.70
73509;SHT30;61750;55.036;73.312;2023-04-07T10:22:07;4.99;32.54
73509;SHT30;61750;55.036;73.312;2023-04-07T10:27:27;5.23;31.51
73509;SHT30;61750;55.036;73.312;2023-04-07T10:29:54;4.88;31.77
73509;SHT30;61750;55.036;73.312;2023-04-07T10:32:22;5.19;32.60
73509;SHT30;61750;55.036;73.312;2023-04-07T10:37:15;5.27;30.98
73509;SHT30;61750;55.036;73.312;2023-04-07T10:39:50;4.90;32.07
73509;SHT30;61750;55.036;73.312;2023-04-07T10:45:06;3.66;32.26
73509;SHT30;61750;55.036;73.312;2023-04-07T10:47:34;3.64;34.91
73509;SHT30;61750;55.036;73.312;2023-04-07T10:50:20;4.71;32.48
73509;SHT30;61750;55.036;73.312;2023-04-07T10:52:47;5.08;31.49
73509;SHT30;61750;55.036;73.312;2023-04-07T10:58:19;5.33;31.60
73509;SHT30;61750;55.036;73.312;2023-04-07T11:03:53;5.70;30.44
73509;SHT30;61750;55.036;73.312;2023-04-07T11:07:02;5.54;29.81
73509;SHT30;61750;55.036;73.312;2023-04-07T11:09:33;5.67;30.68
73509;SHT30;61750;55.036;73.312;2023-04-07T11:12:03;5.64;29.62
73509;SHT30;61750;55.036;73.312;2023-04-07T11:14:31;5.61;30.45
73509;SHT30;61750;55.036;73.312;2023-04-07T11:17:02;5.97;28.97
73509;SHT30;61750;55.036;73.312;2023-04-07T11:19:51;6.62;29.05
73509;SHT30;61750;55.036;73.312;2023-04-07T11:22:27;6.28;28.82
73509;SHT30;61750;55.036;73.312;2023-04-07T11:24:58;7.01;27.85
73509;SHT30;61750;55.036;73.312;2023-04-07T11:27:24;6.28;28.30
73509;SHT30;61750;55.036;73.312;2023-04-07T11:29:56;6.46;28.22
73509;SHT30;61750;55.036;73.312;2023-04-07T11:32:32;6.87;27.59
73509;SHT30;61750;55.036;73.312;2023-04-07T11:34:58;7.18;27.32
73509;SHT30;61750;55.036;73.312;2023-04-07T11:37:25;7.20;26.85
73509;SHT30;61750;55.036;73.312;2023-04-07T11:39:52;7.55;26.51
73509;SHT30;61750;55.036;73.312;2023-04-07T11:42:34;6.66;26.79
73509;SHT30;61750;55.036;73.312;2023-04-07T11:45:16;6.86;26.42
73509;SHT30;61750;55.036;73.312;2023-04-07T11:47:43;7.32;26.39
73509;SHT30;61750;55.036;73.312;2023-04-07T11:50:09;6.83;27.47
73509;SHT30;61750;55.036;73.312;2023-04-07T11:52:42;7.47;26.37
73509;SHT30;61750;55.036;73.312;2023-04-07T11:55:21;7.96;26.68
73509;SHT30;61750;55.036;73.312;2023-04-07T11:57:50;7.00;26.03
73509;SHT30;61750;55.036;73.312;2023-04-07T12:00:26;5.98;27.74
73509;SHT30;61750;55.036;73.312;2023-04-07T12:03:09;5.43;29.06
73509;SHT30;61750;55.036;73.312;2023-04-07T12:05:41;6.40;29.71
73509;SHT30;61750;55.036;73.312;2023-04-07T12:08:13;7.11;27.59
73509;SHT30;61750;55.036;73.312;2023-04-07T12:10:45;6.79;27.53
73509;SHT30;61750;55.036;73.312;2023-04-07T12:13:22;6.30;28.21
73509;SHT30;61750;55.036;73.312;2023-04-07T12:15:48;6.28;26.76
73509;SHT30;61750;55.036;73.312;2023-04-07T12:18:14;6.69;26.94
73509;SHT30;61750;55.036;73.312;2023-04-07T12:20:40;6.22;28.20
73509;SHT30;61750;55.036;73.312;2023-04-07T12:23:06;6.43;26.99
73509;SHT30;61750;55.036;73.312;2023-04-07T12:25:33;5.94;27.63
73509;SHT30;61750;55.036;73.312;2023-04-07T12:27:59;5.47;27.53
73509;SHT30;61750;55.036;73.312;2023-04-07T12:30:25;5.85;27.26
73509;SHT30;61750;55.036;73.312;2023-04-07T12:32:53;5.81;27.08
73509;SHT30;61750;55.036;73.312;2023-04-07T12:35:20;5.37;27.58
73509;SHT30;61750;55.036;73.312;2023-04-07T12:37:57;4.65;28.10
73509;SHT30;61750;55.036;73.312;2023-04-07T12:40:23;5.01;27.84
73509;SHT30;61750;55.036;73.312;2023-04-07T12:42:54;4.48;28.49
73509;SHT30;61750;55.036;73.312;2023-04-07T12:45:23;5.27;27.84
73509;SHT30;61750;55.036;73.312;2023-04-07T12:47:49;4.32;27.09
73509;SHT30;61750;55.036;73.312;2023-04-07T12:50:15;3.69;28.23
73509;SHT30;61750;55.036;73.312;2023-04-07T12:52:42;3.16;28.42
73509;SHT30;61750;55.036;73.312;2023-04-07T12:55:14;2.78;29.55
73509;SHT30;61750;55.036;73.312;2023-04-07T12:57:46;3.25;29.88
73509;SHT30;61750;55.036;73.312;2023-04-07T13:00:12;3.37;29.48
73509;SHT30;61750;55.036;73.312;2023-04-07T13:02:38;3.33;29.17
73509;SHT30;61750;55.036;73.312;2023-04-07T13:05:05;3.35;29.15
73509;SHT30;61750;55.036;73.312;2023-04-07T13:07:31;3.52;29.22
73509;SHT30;61750;55.036;73.312;2023-04-07T13:09:59;3.08;30.77
73509;SHT30;61750;55.036;73.312;2023-04-07T13:12:26;2.95;31.18
73509;SHT30;61750;55.036;73.312;2023-04-07T13:14:52;2.30;31.05
73509;SHT30;61750;55.036;73.312;2023-04-07T13:17:23;0.83;32.16
73509;SHT30;61750;55.036;73.312;2023-04-07T13:19:49;-0.01;33.18
73509;SHT30;61750;55.036;73.312;2023-04-07T13:22:15;-1.11;34.58
73509;SHT30;61750;55.036;73.312;2023-04-07T13:24:47;-1.77;36.41
73509;SHT30;61750;55.036;73.312;2023-04-07T13:27:13;-2.29;37.18
73509;SHT30;61750;55.036;73.312;2023-04-07T13:29:39;-2.74;38.45
73509;SHT30;61750;55.036;73.312;2023-04-07T13:32:07;-3.05;39.38
73509;SHT30;61750;55.036;73.312;2023-04-07T13:34:44;-3.32;39.60
73509;SHT30;61750;55.036;73.312;2023-04-07T13:37:20;-3.64;40.17
73509;SHT30;61750;55.036;73.312;2023-04-07T13:39:46;-3.80;40.29
73509;SHT30;61750;55.036;73.312;2023-04-07T13:42:13;-3.94;39.92
73509;SHT30;61750;55.036;73.312;2023-04-07T13:44:42;-4.06;40.35
73509;SHT30;61750;55.036;73.312;2023-04-07T13:47:11;-4.15;39.93
73509;SHT30;61750;55.036;73.312;2023-04-07T13:49:49;-4.24;40.74
73509;SHT30;61750;55.036;73.312;2023-04-07T13:52:16;-4.32;41.34
73509;SHT30;61750;55.036;73.312;2023-04-07T13:54:42;-4.37;40.67
73509;SHT30;61750;55.036;73.312;2023-04-07T13:57:10;-4.41;41.39
73509;SHT30;61750;55.036;73.312;2023-04-07T13:59:42;-4.47;41.71
73509;SHT30;61750;55.036;73.312;2023-04-07T14:02:08;-4.45;41.47
73509;SHT30;61750;55.036;73.312;2023-04-07T14:04:38;-4.49;41.10
73509;SHT30;61750;55.036;73.312;2023-04-07T14:07:04;-4.47;41.67
73509;SHT30;61750;55.036;73.312;2023-04-07T14:09:31;-4.47;41.80
73509;SHT30;61750;55.036;73.312;2023-04-07T14:11:57;-4.51;41.26
73509;SHT30;61750;55.036;73.312;2023-04-07T14:14:23;-4.49;41.85
73509;SHT30;61750;55.036;73.312;2023-04-07T14:17:02;-4.52;41.91
73509;SHT30;61750;55.036;73.312;2023-04-07T14:19:28;-4.59;41.27
73509;SHT30;61750;55.036;73.312;2023-04-07T14:22:04;-4.68;41.07
73509;SHT30;61750;55.036;73.312;2023-04-07T14:24:42;-4.71;41.06
73509;SHT30;61750;55.036;73.312;2023-04-07T14:27:08;-4.75;41.18
73509;SHT30;61750;55.036;73.312;2023-04-07T14:29:43;-4.76;41.87
73509;SHT30;61750;55.036;73.312;2023-04-07T14:32:09;-4.83;42.00
73509;SHT30;61750;55.036;73.312;2023-04-07T14:34:35;-4.88;42.29
73509;SHT30;61750;55.036;73.312;2023-04-07T14:37:07;-4.89;42.68
73509;SHT30;61750;55.036;73.312;2023-04-07T14:39:33;-4.96;41.94
73509;SHT30;61750;55.036;73.312;2023-04-07T14:42:00;-5.03;41.92
73509;SHT30;61750;55.036;73.312;2023-04-07T14:44:26;-5.07;41.61
73509;SHT30;61750;55.036;73.312;2023-04-07T14:47:03;-5.09;41.48
73509;SHT30;61750;55.036;73.312;2023-04-07T14:49:39;-5.15;41.96
73509;SHT30;61750;55.036;73.312;2023-04-07T14:52:25;-5.16;41.97
73509;SHT30;61750;55.036;73.312;2023-04-07T14:54:52;-5.20;41.95
73509;SHT30;61750;55.036;73.312;2023-04-07T14:57:23;-5.24;41.40
73509;SHT30;61750;55.036;73.312;2023-04-07T14:59:49;-5.28;41.79
73509;SHT30;61750;55.036;73.312;2023-04-07T15:02:15;-5.30;41.68
73509;SHT30;61750;55.036;73.312;2023-04-07T15:04:46;-5.34;41.66
73509;SHT30;61750;55.036;73.312;2023-04-07T15:07:12;-5.36;41.53
73509;SHT30;61750;55.036;73.312;2023-04-07T15:09:38;-5.40;42.14
73509;SHT30;61750;55.036;73.312;2023-04-07T15:12:04;-5.41;42.02
73509;SHT30;61750;55.036;73.312;2023-04-07T15:14:30;-5.44;41.89
73509;SHT30;61750;55.036;73.312;2023-04-07T15:17:02;-5.50;42.80
73509;SHT30;61750;55.036;73.312;2023-04-07T15:19:32;-5.48;42.56
73509;SHT30;61750;55.036;73.312;2023-04-07T15:22:02;-5.53;43.35
73509;SHT30;61750;55.036;73.312;2023-04-07T15:24:28;-5.54;43.34
73509;SHT30;61750;55.036;73.312;2023-04-07T15:27:02;-5.57;42.73
73509;SHT30;61750;55.036;73.312;2023-04-07T15:29:28;-5.58;42.07
73509;SHT30;61750;55.036;73.312;2023-04-07T15:32:04;-5.61;42.45
73509;SHT30;61750;55.036;73.312;2023-04-07T15:34:30;-5.63;42.73
73509;SHT30;61750;55.036;73.312;2023-04-07T15:37:02;-5.66;42.71
73509;SHT30;61750;55.036;73.312;2023-04-07T15:39:29;-5.66;42.75
73509;SHT30;61750;55.036;73.312;2023-04-07T15:41:55;-5.70;42.92
73509;SHT30;61750;55.036;73.312;2023-04-07T15:44:21;-5.71;42.95
73509;SHT30;61750;55.036;73.312;2023-04-07T15:47:02;-5.73;42.72
73509;SHT30;61750;55.036;73.312;2023-04-07T15:49:28;-5.74;42.73
73509;SHT30;61750;55.036;73.312;2023-04-07T15:52:05;-5.81;42.27
73509;SHT30;61750;55.036;73.312;2023-04-07T15:54:31;-5.82;42.67
73509;SHT30;61750;55.036;73.312;2023-04-07T15:57:02;-5.88;42.31
73509;SHT30;61750;55.036;73.312;2023-04-07T15:59:28;-5.90;41.75
73509;SHT30;61750;55.036;73.312;2023-04-07T16:02:02;-5.90;40.76
73509;SHT30;61750;55.036;73.312;2023-04-07T16:04:27;-5.94;40.51
73509;SHT30;61750;55.036;73.312;2023-04-07T16:07:02;-5.95;40.13
73509;SHT30;61750;55.036;73.312;2023-04-07T16:09:28;-5.99;40.59
73509;SHT30;61750;55.036;73.312;2023-04-07T16:11:54;-6.01;41.00